createdAt,value
2023-03-22T00:00:38.529Z,12.20
2023-03-22T00:03:05.429Z,12.10
2023-03-22T00:05:32.141Z,12.10
2023-03-22T00:07:59.035Z,12.10
2023-03-22T00:10:25.698Z,12.20
2023-03-22T00:12:52.347Z,12.10
2023-03-22T00:15:18.994Z,12.10
2023-03-22T00:17:45.633Z,12.10
2023-03-22T00:20:12.508Z,12.10
2023-03-22T00:22:39.162Z,12.20
2023-03-22T00:25:05.858Z,12.20
2023-03-22T00:27:32.526Z,12.20
2023-03-22T00:29:59.214Z,12.10
2023-03-22T00:32:26.091Z,12.10
2023-03-22T00:34:52.737Z,12.10
2023-03-22T00:37:19.639Z,12.10
2023-03-22T00:39:46.281Z,12.10
2023-03-22T00:42:13.144Z,12.10
2023-03-22T00:44:39.777Z,12.10
2023-03-22T00:47:06.409Z,12.10
2023-03-22T00:49:33.068Z,12.10
2023-03-22T00:51:59.724Z,12.10
2023-03-22T00:54:26.398Z,12.10
2023-03-22T00:56:53.039Z,12.10
2023-03-22T00:59:20.165Z,12.10
2023-03-22T01:01:46.797Z,12.10
2023-03-22T01:04:13.454Z,12.00
2023-03-22T01:06:40.111Z,12.10
2023-03-22T01:09:06.750Z,12.10
2023-03-22T01:11:33.392Z,12.10
2023-03-22T01:14:00.028Z,12.10
2023-03-22T01:16:26.924Z,12.10
2023-03-22T01:18:53.586Z,12.10
2023-03-22T01:21:20.455Z,12.10
2023-03-22T01:23:47.113Z,12.10
2023-03-22T01:26:13.953Z,12.10
2023-03-22T01:28:40.636Z,12.10
2023-03-22T01:31:07.403Z,12.10
2023-03-22T01:33:34.114Z,12.10
2023-03-22T01:36:00.773Z,12.10
2023-03-22T01:38:27.484Z,12.10
2023-03-22T01:40:54.149Z,12.00
2023-03-22T01:43:20.810Z,12.10
2023-03-22T01:45:47.502Z,12.10
2023-03-22T01:48:14.444Z,12.00
2023-03-22T01:50:41.255Z,12.10
2023-03-22T01:53:08.015Z,12.10
2023-03-22T01:55:34.665Z,12.00
2023-03-22T01:58:01.323Z,12.00
2023-03-22T02:00:28.009Z,12.00
2023-03-22T02:02:54.656Z,12.00
2023-03-22T02:05:21.536Z,12.00
2023-03-22T02:07:48.196Z,12.00
2023-03-22T02:10:14.870Z,12.00
2023-03-22T02:12:41.508Z,12.00
2023-03-22T02:15:08.146Z,12.00
2023-03-22T02:17:34.803Z,12.00
2023-03-22T02:20:01.446Z,12.00
2023-03-22T02:22:28.300Z,12.00
2023-03-22T02:24:54.954Z,12.00
2023-03-22T02:27:21.600Z,12.00
2023-03-22T02:29:48.248Z,12.00
2023-03-22T02:32:14.898Z,12.00
2023-03-22T02:34:47.273Z,12.00
2023-03-22T02:37:13.947Z,12.00
2023-03-22T02:39:40.567Z,12.00
2023-03-22T02:42:07.193Z,12.00
2023-03-22T02:44:33.813Z,12.00
2023-03-22T02:47:00.528Z,12.00
2023-03-22T02:49:27.196Z,12.00
2023-03-22T02:51:53.822Z,12.00
2023-03-22T02:54:20.447Z,12.00
2023-03-22T02:56:47.066Z,12.00
2023-03-22T02:59:14.509Z,11.90
2023-03-22T03:01:41.172Z,11.90
2023-03-22T03:04:07.816Z,12.00
2023-03-22T03:06:34.453Z,12.00
2023-03-22T03:09:01.091Z,11.90
2023-03-22T03:11:27.717Z,11.90
2023-03-22T03:13:54.559Z,11.90
2023-03-22T03:16:21.197Z,11.90
2023-03-22T03:18:47.845Z,11.90
2023-03-22T03:21:14.493Z,12.00
2023-03-22T03:23:41.133Z,12.00
2023-03-22T03:26:07.998Z,11.90
2023-03-22T03:28:34.622Z,12.00
2023-03-22T03:31:01.266Z,11.90
2023-03-22T03:33:27.911Z,11.90
2023-03-22T03:35:54.620Z,11.90
2023-03-22T03:38:21.261Z,11.90
2023-03-22T03:40:48.996Z,11.90
2023-03-22T03:43:15.606Z,11.90
2023-03-22T03:45:42.260Z,11.90
2023-03-22T03:48:09.075Z,11.90
2023-03-22T03:50:35.721Z,11.90
2023-03-22T03:53:02.332Z,11.90
2023-03-22T03:55:28.945Z,11.90
2023-03-22T03:57:55.568Z,11.90
2023-03-22T04:00:22.186Z,11.90
2023-03-22T04:02:48.807Z,11.90
2023-03-22T04:05:15.659Z,11.90
2023-03-22T04:07:42.300Z,11.90
2023-03-22T04:10:08.914Z,11.90
2023-03-22T04:12:35.542Z,11.90
2023-03-22T04:15:02.162Z,11.90
2023-03-22T04:17:28.789Z,11.90
2023-03-22T04:19:55.419Z,11.90
2023-03-22T04:22:22.279Z,11.90
2023-03-22T04:24:48.908Z,11.90
2023-03-22T04:27:15.526Z,11.90
2023-03-22T04:29:42.169Z,11.90
2023-03-22T04:32:08.808Z,11.90
2023-03-22T04:34:35.423Z,11.90
2023-03-22T04:37:02.048Z,11.90
2023-03-22T04:39:28.894Z,11.90
2023-03-22T04:41:55.517Z,11.90
2023-03-22T04:44:22.130Z,11.90
2023-03-22T04:46:48.756Z,11.90
2023-03-22T04:49:15.390Z,11.90
2023-03-22T04:51:42.022Z,11.90
2023-03-22T04:54:08.745Z,11.80
2023-03-22T04:56:35.320Z,11.90
2023-03-22T04:59:01.953Z,11.90
2023-03-22T05:01:28.641Z,11.80
2023-03-22T05:03:55.293Z,11.90
2023-03-22T05:06:21.916Z,11.80
2023-03-22T05:08:48.559Z,11.90
2023-03-22T05:11:17.638Z,11.80
2023-03-22T05:13:44.263Z,11.90
2023-03-22T05:16:11.262Z,11.80
2023-03-22T05:18:37.984Z,11.80
2023-03-22T05:21:04.832Z,11.80
2023-03-22T05:23:31.671Z,11.80
2023-03-22T05:25:58.303Z,11.80
2023-03-22T05:28:25.959Z,11.80
2023-03-22T05:30:53.452Z,11.80
2023-03-22T05:33:21.573Z,11.80
2023-03-22T05:35:48.251Z,11.80
2023-03-22T05:38:15.089Z,11.80
2023-03-22T05:40:42.117Z,11.80
2023-03-22T05:43:11.595Z,11.80
2023-03-22T05:45:38.420Z,11.80
2023-03-22T05:48:05.121Z,11.80
2023-03-22T05:50:31.770Z,11.80
2023-03-22T05:52:59.000Z,11.80
2023-03-22T05:55:25.624Z,11.80
2023-03-22T05:57:52.242Z,11.80
2023-03-22T06:00:18.855Z,11.80
2023-03-22T06:02:45.493Z,11.80
2023-03-22T06:05:12.116Z,11.80
2023-03-22T06:07:38.739Z,11.80
2023-03-22T06:10:05.368Z,11.80
2023-03-22T06:12:32.000Z,11.80
2023-03-22T06:14:58.868Z,11.80
2023-03-22T06:17:25.493Z,11.80
2023-03-22T06:19:53.246Z,11.80
2023-03-22T06:22:19.981Z,11.80
2023-03-22T06:24:46.611Z,11.80
2023-03-22T06:27:13.228Z,11.80
2023-03-22T06:29:39.870Z,11.80
2023-03-22T06:32:06.515Z,11.80
2023-03-22T06:34:33.373Z,11.80
2023-03-22T06:36:59.987Z,11.80
2023-03-22T06:39:26.609Z,11.80
2023-03-22T06:41:53.245Z,11.80
2023-03-22T06:44:19.874Z,11.80
2023-03-22T06:46:47.207Z,11.80
2023-03-22T06:49:13.833Z,11.80
2023-03-22T06:51:40.440Z,11.80
2023-03-22T06:54:07.054Z,11.80
2023-03-22T06:56:33.682Z,11.80
2023-03-22T06:59:00.306Z,11.80
2023-03-22T07:01:27.258Z,11.80
2023-03-22T07:03:53.900Z,11.70
2023-03-22T07:06:20.551Z,11.80
2023-03-22T07:08:50.094Z,11.80
2023-03-22T07:11:17.418Z,11.80
2023-03-22T07:13:44.293Z,11.80
2023-03-22T07:16:10.971Z,11.80
2023-03-22T07:18:37.638Z,11.70
2023-03-22T07:21:04.260Z,11.80
2023-03-22T07:23:30.899Z,11.80
2023-03-22T07:25:57.526Z,11.70
2023-03-22T07:28:24.916Z,11.80
2023-03-22T07:30:51.531Z,11.80
2023-03-22T07:33:18.140Z,11.80
2023-03-22T07:35:44.792Z,11.80
2023-03-22T07:38:11.415Z,11.80
2023-03-22T07:40:38.375Z,11.80
2023-03-22T07:43:05.224Z,11.80
2023-03-22T07:45:31.860Z,11.80
2023-03-22T07:47:58.529Z,11.80
2023-03-22T07:50:25.183Z,11.80
2023-03-22T07:52:52.073Z,11.80
2023-03-22T07:55:18.762Z,11.80
2023-03-22T07:57:45.390Z,11.80
2023-03-22T08:02:59.699Z,11.80
2023-03-22T08:05:27.631Z,11.80
2023-03-22T08:07:54.251Z,11.80
2023-03-22T08:10:20.876Z,11.90
2023-03-22T08:12:47.509Z,11.90
2023-03-22T08:15:14.166Z,11.90
2023-03-22T08:17:41.301Z,11.90
2023-03-22T08:20:07.946Z,11.80
2023-03-22T08:22:34.603Z,11.90
2023-03-22T08:25:01.217Z,11.90
2023-03-22T08:27:27.864Z,11.90
2023-03-22T08:29:54.510Z,11.90
2023-03-22T08:32:21.132Z,11.90
2023-03-22T08:34:47.753Z,12.00
2023-03-22T08:37:14.389Z,11.90
2023-03-22T08:39:41.027Z,12.00
2023-03-22T08:42:07.686Z,12.00
2023-03-22T08:44:34.325Z,12.00
2023-03-22T08:47:02.282Z,12.10
2023-03-22T08:49:29.708Z,12.10
2023-03-22T08:51:56.339Z,12.20
2023-03-22T08:54:22.964Z,12.20
2023-03-22T08:56:49.600Z,12.20
2023-03-22T08:59:16.233Z,12.20
2023-03-22T09:01:42.951Z,12.20
2023-03-22T09:04:10.693Z,12.30
2023-03-22T09:06:37.557Z,12.20
2023-03-22T09:09:04.211Z,12.20
2023-03-22T09:11:30.849Z,12.20
2023-03-22T09:13:57.488Z,12.20
2023-03-22T09:16:24.152Z,12.20
2023-03-22T09:18:50.790Z,12.10
2023-03-22T09:21:17.419Z,12.10
2023-03-22T09:23:44.041Z,12.20
2023-03-22T09:26:12.649Z,12.20
2023-03-22T09:28:39.455Z,12.20
2023-03-22T09:31:06.129Z,12.20
2023-03-22T09:33:32.756Z,12.10
2023-03-22T09:35:59.395Z,12.20
2023-03-22T09:38:26.072Z,12.10
2023-03-22T09:40:52.695Z,12.10
2023-03-22T09:43:19.318Z,12.10
2023-03-22T09:45:45.947Z,12.10
2023-03-22T09:48:12.775Z,12.10
2023-03-22T09:50:39.498Z,12.10
2023-03-22T09:53:06.762Z,12.10
2023-03-22T09:55:33.384Z,12.10
2023-03-22T09:58:00.758Z,12.10
2023-03-22T10:00:28.002Z,12.10
2023-03-22T10:02:54.801Z,12.10
2023-03-22T10:05:21.482Z,12.10
2023-03-22T10:07:48.139Z,12.10
2023-03-22T10:10:16.960Z,12.10
2023-03-22T10:12:43.618Z,12.20
2023-03-22T10:15:10.483Z,12.20
2023-03-22T10:17:37.103Z,12.20
2023-03-22T10:20:03.742Z,12.20
2023-03-22T10:22:33.561Z,12.20
2023-03-22T10:25:00.247Z,12.20
2023-03-22T10:27:26.874Z,12.20
2023-03-22T10:29:55.263Z,12.20
2023-03-22T10:32:21.877Z,12.30
2023-03-22T10:34:48.517Z,12.20
2023-03-22T10:37:15.153Z,12.30
2023-03-22T10:39:41.777Z,12.30
2023-03-22T10:42:08.399Z,12.30
2023-03-22T10:44:35.038Z,12.30
2023-03-22T10:47:01.685Z,12.30
2023-03-22T10:49:28.325Z,12.30
2023-03-22T10:51:54.971Z,12.30
2023-03-22T10:54:21.635Z,12.30
2023-03-22T10:56:48.273Z,12.30
2023-03-22T10:59:15.125Z,12.30
2023-03-22T11:01:41.888Z,12.30
2023-03-22T11:04:08.648Z,12.30
2023-03-22T11:06:35.280Z,12.30
2023-03-22T11:09:01.917Z,12.30
2023-03-22T11:11:28.546Z,12.30
2023-03-22T11:13:55.169Z,12.30
2023-03-22T11:16:22.099Z,12.30
2023-03-22T11:18:48.730Z,12.30
2023-03-22T11:21:15.350Z,12.30
2023-03-22T11:23:41.971Z,12.30
2023-03-22T11:26:08.583Z,12.30
2023-03-22T11:28:35.226Z,12.30
2023-03-22T11:31:01.866Z,12.30
2023-03-22T11:33:28.518Z,12.30
2023-03-22T11:35:55.179Z,12.30
2023-03-22T11:38:21.840Z,12.30
2023-03-22T11:40:48.452Z,12.30
2023-03-22T11:43:15.088Z,12.30
2023-03-22T11:45:41.755Z,12.30
2023-03-22T11:48:08.500Z,12.40
2023-03-22T11:50:35.236Z,12.40
2023-03-22T11:53:01.867Z,12.30
2023-03-22T11:55:28.495Z,12.40
2023-03-22T11:57:55.126Z,12.40
2023-03-22T12:00:21.817Z,12.40
2023-03-22T12:02:48.602Z,12.40
2023-03-22T12:05:15.413Z,12.40
2023-03-22T12:07:42.186Z,12.40
2023-03-22T12:10:09.060Z,12.40
2023-03-22T12:12:35.694Z,12.40
2023-03-22T12:15:02.322Z,12.40
2023-03-22T12:17:28.993Z,12.40
2023-03-22T12:19:55.713Z,12.40
2023-03-22T12:22:22.345Z,12.40
2023-03-22T12:24:48.972Z,12.40
2023-03-22T12:27:15.591Z,12.40
2023-03-22T12:29:42.209Z,12.40
2023-03-22T12:32:08.832Z,12.40
2023-03-22T12:34:35.461Z,12.40
2023-03-22T12:37:02.306Z,12.40
2023-03-22T12:39:28.937Z,12.40
2023-03-22T12:41:55.559Z,12.40
2023-03-22T12:44:22.183Z,12.50
2023-03-22T12:46:48.892Z,12.40
2023-03-22T12:49:15.675Z,12.40
2023-03-22T12:51:42.522Z,12.40
2023-03-22T12:54:09.359Z,12.50
2023-03-22T12:56:35.976Z,12.50
2023-03-22T12:59:02.635Z,12.50
2023-03-22T13:01:29.280Z,12.50
2023-03-22T13:03:56.103Z,12.50
2023-03-22T13:06:22.781Z,12.60
2023-03-22T13:08:49.412Z,12.60
2023-03-22T13:11:16.040Z,12.60
2023-03-22T13:13:42.897Z,12.60
2023-03-22T13:16:09.669Z,12.60
2023-03-22T13:18:36.481Z,12.60
2023-03-22T13:21:03.110Z,12.60
2023-03-22T13:23:29.733Z,12.60
2023-03-22T13:25:56.359Z,12.60
2023-03-22T13:28:22.988Z,12.60
2023-03-22T13:30:49.646Z,12.60
2023-03-22T13:33:16.293Z,12.70
2023-03-22T13:35:43.523Z,12.80
2023-03-22T13:38:10.456Z,12.80
2023-03-22T13:40:37.078Z,12.90
2023-03-22T13:43:03.695Z,12.90
2023-03-22T13:45:30.314Z,12.90
2023-03-22T13:47:57.065Z,13.00
2023-03-22T13:50:23.766Z,13.00
2023-03-22T13:52:50.388Z,13.20
2023-03-22T13:55:18.733Z,13.30
2023-03-22T13:57:45.544Z,13.40
2023-03-22T14:00:14.372Z,13.50
2023-03-22T14:02:42.025Z,13.50
2023-03-22T14:05:08.851Z,13.40
2023-03-22T14:07:35.487Z,13.50
2023-03-22T14:10:02.119Z,13.70
2023-03-22T14:12:28.965Z,13.90
2023-03-22T14:14:55.590Z,14.00
2023-03-22T14:17:22.206Z,14.10
2023-03-22T14:19:48.865Z,14.30
